createdAt,value
2022-12-15T00:00:35.102Z,-2.40
2022-12-15T00:03:06.336Z,-2.40
2022-12-15T00:05:32.806Z,-2.39
2022-12-15T00:08:06.910Z,-2.36
2022-12-15T00:10:33.653Z,-2.33
2022-12-15T00:13:00.193Z,-2.34
2022-12-15T00:15:26.835Z,-2.35
2022-12-15T00:17:53.441Z,-2.32
2022-12-15T00:20:20.084Z,-2.35
2022-12-15T00:22:46.654Z,-2.34
2022-12-15T00:25:13.056Z,-2.33
2022-12-15T00:27:39.716Z,-2.37
2022-12-15T00:30:07.160Z,-2.35
2022-12-15T00:32:34.034Z,-2.35
2022-12-15T00:35:00.411Z,-2.36
2022-12-15T00:37:26.928Z,-2.36
2022-12-15T00:39:53.215Z,-2.34
2022-12-15T00:42:19.737Z,-2.36
2022-12-15T00:44:46.098Z,-2.35
2022-12-15T00:47:12.551Z,-2.36
2022-12-15T00:49:39.092Z,-2.33
2022-12-15T00:52:06.611Z,-2.33
2022-12-15T00:54:32.963Z,-2.39
2022-12-15T00:56:59.535Z,-2.37
2022-12-15T00:59:25.932Z,-2.33
2022-12-15T01:01:52.603Z,-2.32
2022-12-15T01:04:19.089Z,-2.32
2022-12-15T01:06:45.544Z,-2.37
2022-12-15T01:09:13.544Z,-2.44
2022-12-15T01:11:40.034Z,-2.43
2022-12-15T01:14:06.680Z,-2.39
2022-12-15T01:16:33.170Z,-2.36
2022-12-15T01:18:59.581Z,-2.42
2022-12-15T01:21:26.177Z,-2.39
2022-12-15T01:23:52.950Z,-2.37
2022-12-15T01:26:19.703Z,-2.38
2022-12-15T01:28:46.179Z,-2.34
2022-12-15T01:31:12.963Z,-2.31
2022-12-15T01:33:39.834Z,-2.34
2022-12-15T01:36:06.357Z,-2.35
2022-12-15T01:38:32.826Z,-2.33
2022-12-15T01:41:02.671Z,-2.30
2022-12-15T01:43:33.253Z,-2.34
2022-12-15T01:46:12.098Z,-2.34
2022-12-15T01:48:46.689Z,-2.33
2022-12-15T01:51:22.863Z,-2.36
2022-12-15T01:54:18.132Z,-2.34
2022-12-15T01:56:48.428Z,-2.37
2022-12-15T01:59:20.999Z,-2.37
2022-12-15T02:01:50.038Z,-2.37
2022-12-15T02:04:19.513Z,-2.32
2022-12-15T02:06:45.894Z,-2.30
2022-12-15T02:09:12.554Z,-2.32
2022-12-15T02:11:43.391Z,-2.34
2022-12-15T02:14:11.046Z,-2.39
2022-12-15T02:16:55.907Z,-2.35
2022-12-15T02:19:51.566Z,-2.34
2022-12-15T02:22:33.946Z,-2.33
2022-12-15T02:25:28.373Z,-2.33
2022-12-15T02:28:11.662Z,-2.35
2022-12-15T02:30:56.563Z,-2.33
2022-12-15T02:33:30.016Z,-2.37
2022-12-15T02:36:15.398Z,-2.44
2022-12-15T02:38:41.927Z,-2.43
2022-12-15T02:41:36.160Z,-2.45
2022-12-15T02:44:19.978Z,-2.45
2022-12-15T02:46:55.221Z,-2.47
2022-12-15T02:49:33.467Z,-2.47
2022-12-15T02:52:22.993Z,-2.49
2022-12-15T02:55:12.696Z,-2.45
2022-12-15T02:57:56.620Z,-2.42
2022-12-15T03:00:23.182Z,-2.37
2022-12-15T03:02:53.552Z,-2.35
2022-12-15T03:05:22.179Z,-2.41
2022-12-15T03:07:53.579Z,-2.36
2022-12-15T03:10:23.128Z,-2.38
2022-12-15T03:12:49.687Z,-2.37
2022-12-15T03:15:17.273Z,-2.32
2022-12-15T03:17:43.604Z,-2.38
2022-12-15T03:20:10.892Z,-2.41
2022-12-15T03:22:38.284Z,-2.40
2022-12-15T03:25:05.397Z,-2.49
2022-12-15T03:27:31.796Z,-2.49
2022-12-15T03:29:58.231Z,-2.53
2022-12-15T03:32:24.672Z,-2.56
2022-12-15T03:34:51.265Z,-2.53
2022-12-15T03:37:17.974Z,-2.48
2022-12-15T03:39:44.473Z,-2.43
2022-12-15T03:42:10.821Z,-2.48
2022-12-15T03:44:37.439Z,-2.49
2022-12-15T03:47:06.237Z,-2.43
2022-12-15T03:49:32.898Z,-2.41
2022-12-15T03:51:59.312Z,-2.37
2022-12-15T03:54:25.773Z,-2.37
2022-12-15T03:56:52.130Z,-2.34
2022-12-15T03:59:18.887Z,-2.32
2022-12-15T04:01:47.416Z,-2.45
2022-12-15T04:04:13.906Z,-2.54
2022-12-15T04:06:40.376Z,-2.38
2022-12-15T04:09:06.904Z,-2.44
2022-12-15T04:11:33.430Z,-2.40
2022-12-15T04:13:59.967Z,-2.36
2022-12-15T04:16:26.665Z,-2.32
2022-12-15T04:18:53.242Z,-2.30
2022-12-15T04:21:19.745Z,-2.30
2022-12-15T04:23:47.155Z,-2.28
2022-12-15T04:26:13.668Z,-2.27
2022-12-15T04:28:40.254Z,-2.27
2022-12-15T04:31:10.837Z,-2.27
2022-12-15T04:33:39.941Z,-2.34
2022-12-15T04:36:09.357Z,-2.29
2022-12-15T04:38:35.992Z,-2.34
2022-12-15T04:41:02.449Z,-2.36
2022-12-15T04:43:29.382Z,-2.36
2022-12-15T04:45:57.053Z,-2.36
2022-12-15T04:48:23.590Z,-2.32
2022-12-15T04:50:50.093Z,-2.28
2022-12-15T04:53:18.139Z,-2.24
2022-12-15T04:55:44.612Z,-2.25
2022-12-15T04:58:11.252Z,-2.26
2022-12-15T05:00:37.985Z,-2.30
2022-12-15T05:03:10.331Z,-2.32
2022-12-15T05:05:38.869Z,-2.36
2022-12-15T05:08:05.280Z,-2.45
2022-12-15T05:10:31.694Z,-2.44
2022-12-15T05:13:08.270Z,-2.47
2022-12-15T05:15:35.648Z,-2.49
2022-12-15T05:18:02.300Z,-2.52
2022-12-15T05:20:28.745Z,-2.52
2022-12-15T05:22:56.426Z,-2.47
2022-12-15T05:25:23.000Z,-2.37
2022-12-15T05:27:49.374Z,-2.37
2022-12-15T05:30:15.801Z,-2.40
2022-12-15T05:32:42.509Z,-2.40
2022-12-15T05:35:08.903Z,-2.38
2022-12-15T05:37:35.329Z,-2.37
2022-12-15T05:40:01.954Z,-2.37
2022-12-15T05:42:28.511Z,-2.32
2022-12-15T05:44:54.934Z,-2.28
2022-12-15T05:47:21.602Z,-2.29
2022-12-15T05:49:47.923Z,-2.28
2022-12-15T05:52:14.413Z,-2.28
2022-12-15T05:54:41.060Z,-2.31
2022-12-15T05:57:07.391Z,-2.27
2022-12-15T05:59:33.896Z,-2.32
2022-12-15T06:02:00.342Z,-2.38
2022-12-15T06:04:26.865Z,-2.33
2022-12-15T06:06:53.502Z,-2.29
2022-12-15T06:09:20.078Z,-2.28
2022-12-15T06:11:46.959Z,-2.27
2022-12-15T06:14:13.607Z,-2.24
2022-12-15T06:16:50.128Z,-2.27
2022-12-15T06:19:17.722Z,-2.25
2022-12-15T06:21:44.047Z,-2.26
2022-12-15T06:24:10.736Z,-2.22
2022-12-15T06:26:38.647Z,-2.21
2022-12-15T06:29:09.329Z,-2.26
2022-12-15T06:31:37.137Z,-2.27
2022-12-15T06:34:06.306Z,-2.22
2022-12-15T06:36:33.072Z,-2.24
2022-12-15T06:39:00.997Z,-2.27
2022-12-15T06:41:29.847Z,-2.29
2022-12-15T06:43:56.682Z,-2.26
2022-12-15T06:46:24.308Z,-2.33
2022-12-15T06:48:50.924Z,-2.40
2022-12-15T06:51:18.064Z,-2.36
2022-12-15T06:53:45.031Z,-2.35
2022-12-15T06:56:35.075Z,-2.33
2022-12-15T06:59:06.141Z,-2.30
2022-12-15T07:01:35.365Z,-2.35
2022-12-15T07:04:02.441Z,-2.29
2022-12-15T07:06:34.269Z,-2.25
2022-12-15T07:09:00.718Z,-2.28
2022-12-15T07:11:27.412Z,-2.26
2022-12-15T07:13:54.374Z,-2.20
2022-12-15T07:16:22.947Z,-2.22
2022-12-15T07:18:49.603Z,-2.22
2022-12-15T07:21:16.604Z,-2.17
2022-12-15T07:23:59.176Z,-2.10
2022-12-15T07:26:27.856Z,-2.07
2022-12-15T07:28:54.741Z,-2.17
2022-12-15T07:31:22.719Z,-2.20
2022-12-15T07:33:49.500Z,-2.26
2022-12-15T07:36:16.386Z,-2.29
2022-12-15T07:38:42.883Z,-2.28
2022-12-15T07:41:10.132Z,-2.33
2022-12-15T07:43:37.961Z,-2.22
2022-12-15T07:46:05.563Z,-2.18
2022-12-15T07:48:32.575Z,-2.19
2022-12-15T07:51:07.286Z,-2.18
2022-12-15T07:53:36.154Z,-2.13
2022-12-15T07:56:07.909Z,-2.08
2022-12-15T07:58:36.005Z,-2.04
2022-12-15T08:01:05.244Z,-1.92
2022-12-15T08:03:32.911Z,-1.80
2022-12-15T08:06:06.686Z,-1.72
2022-12-15T08:08:34.584Z,-1.64
2022-12-15T08:11:06.141Z,-1.78
2022-12-15T08:16:20.752Z,-1.51
2022-12-15T08:18:47.326Z,-1.57
2022-12-15T08:21:13.699Z,-1.56
2022-12-15T08:23:40.053Z,-1.55
2022-12-15T08:26:09.656Z,-1.57
2022-12-15T08:28:37.786Z,-1.46
2022-12-15T08:31:13.248Z,-1.26
2022-12-15T08:33:39.929Z,-1.22
2022-12-15T08:36:10.477Z,-1.14
2022-12-15T08:38:38.965Z,-1.15
2022-12-15T08:41:15.999Z,-1.10
2022-12-15T08:43:48.199Z,-0.97
2022-12-15T08:46:21.244Z,-0.98
2022-12-15T08:48:47.952Z,-1.05
2022-12-15T08:51:15.453Z,-1.14
2022-12-15T08:53:42.362Z,-1.30
2022-12-15T08:56:11.428Z,-1.26
2022-12-15T08:58:38.756Z,-1.10
2022-12-15T09:01:07.990Z,-1.08
2022-12-15T09:03:35.893Z,-0.94
2022-12-15T09:06:04.349Z,-0.87
2022-12-15T09:08:31.053Z,-0.65
2022-12-15T09:10:58.588Z,-0.66
2022-12-15T09:13:25.438Z,-0.53
2022-12-15T09:16:09.531Z,-0.54
2022-12-15T09:18:36.675Z,-0.57
2022-12-15T09:21:04.784Z,-0.10
2022-12-15T09:23:32.405Z,-0.28
2022-12-15T09:26:07.376Z,-0.25
2022-12-15T09:28:34.592Z,-0.22
2022-12-15T09:31:06.108Z,-0.04
2022-12-15T09:33:34.405Z,0.15
2022-12-15T09:36:01.731Z,0.22
2022-12-15T09:38:28.173Z,0.37
2022-12-15T09:40:54.634Z,1.07
2022-12-15T09:43:46.588Z,1.00
2022-12-15T09:46:30.866Z,0.61
2022-12-15T09:49:02.225Z,0.33
2022-12-15T09:51:54.430Z,0.41
2022-12-15T09:54:23.971Z,0.27
2022-12-15T09:56:55.793Z,0.21
2022-12-15T09:59:26.301Z,0.14
2022-12-15T10:02:13.742Z,0.59
2022-12-15T10:06:06.145Z,0.51
2022-12-15T10:08:23.845Z,0.27
2022-12-15T10:10:55.097Z,0.15
2022-12-15T10:14:13.125Z,0.35
2022-12-15T10:17:05.700Z,0.52
2022-12-15T10:19:41.206Z,0.17
2022-12-15T10:22:14.327Z,0.36
2022-12-15T10:27:46.431Z,0.05
2022-12-15T10:30:16.052Z,0.31
2022-12-15T10:32:59.481Z,0.26
2022-12-15T10:35:32.209Z,0.38
2022-12-15T10:38:01.079Z,0.41
2022-12-15T10:40:50.802Z,0.25
2022-12-15T10:43:42.060Z,0.43
2022-12-15T10:46:11.976Z,0.25
2022-12-15T10:48:39.217Z,0.15
2022-12-15T10:51:16.482Z,0.42
2022-12-15T10:53:52.101Z,0.41
2022-12-15T10:56:32.804Z,0.16
2022-12-15T10:59:31.635Z,0.04
2022-12-15T11:02:27.868Z,0.04
2022-12-15T11:05:01.752Z,0.04
2022-12-15T11:07:55.779Z,-0.03
2022-12-15T11:10:25.702Z,0.13
2022-12-15T11:13:12.988Z,0.10
2022-12-15T11:15:43.343Z,-0.06
2022-12-15T11:18:43.224Z,0.12
2022-12-15T11:21:12.540Z,-0.01
2022-12-15T11:24:09.738Z,0.11
2022-12-15T11:26:48.824Z,0.23
2022-12-15T11:29:21.446Z,0.13
2022-12-15T11:31:50.160Z,0.14
2022-12-15T11:34:39.034Z,-0.01
2022-12-15T11:40:33.233Z,0.37
2022-12-15T11:43:21.471Z,0.62
2022-12-15T11:46:16.683Z,0.26
2022-12-15T11:48:58.164Z,0.09
2022-12-15T11:51:36.481Z,-0.10
2022-12-15T11:54:10.163Z,0.22
2022-12-15T11:56:47.589Z,0.32
2022-12-15T11:59:34.341Z,0.26
2022-12-15T12:02:19.396Z,0.22
2022-12-15T12:05:13.851Z,0.76
2022-12-15T12:07:53.193Z,0.94
2022-12-15T12:10:33.099Z,1.02
2022-12-15T12:13:14.945Z,1.28
2022-12-15T12:15:54.773Z,0.74
2022-12-15T12:18:52.023Z,1.05
2022-12-15T12:21:24.790Z,1.03
2022-12-15T12:24:01.291Z,1.46
2022-12-15T12:26:56.035Z,1.26
2022-12-15T12:29:34.422Z,0.99
2022-12-15T12:32:28.054Z,0.92
2022-12-15T12:35:31.112Z,0.84
2022-12-15T12:38:03.282Z,1.04
2022-12-15T12:40:55.207Z,1.06
2022-12-15T12:43:40.546Z,1.24
2022-12-15T12:46:15.177Z,1.26
2022-12-15T12:49:00.331Z,1.56
2022-12-15T12:51:30.475Z,1.23
2022-12-15T12:53:58.944Z,1.34
2022-12-15T12:56:48.695Z,1.71
2022-12-15T12:59:29.308Z,1.42
2022-12-15T13:01:57.824Z,1.41
2022-12-15T13:04:30.199Z,0.78
2022-12-15T13:07:33.361Z,0.45
2022-12-15T13:10:21.243Z,0.46
2022-12-15T13:12:58.743Z,0.36
2022-12-15T13:15:28.404Z,0.16
2022-12-15T13:18:16.715Z,0.15
2022-12-15T13:20:45.538Z,0.11
2022-12-15T13:23:21.386Z,0.41
2022-12-15T13:25:55.523Z,0.45
2022-12-15T13:28:31.529Z,0.51
2022-12-15T13:31:13.129Z,0.65
2022-12-15T13:33:51.220Z,0.54
2022-12-15T13:36:39.492Z,0.43
2022-12-15T13:39:11.802Z,0.43
2022-12-15T13:42:32.205Z,0.34
2022-12-15T13:44:51.369Z,0.39
2022-12-15T13:47:25.219Z,0.42
2022-12-15T13:50:01.419Z,0.61
2022-12-15T13:53:17.101Z,0.60
2022-12-15T13:55:45.937Z,0.81
2022-12-15T13:58:18.627Z,0.37
2022-12-15T14:00:56.659Z,0.25
2022-12-15T14:03:23.886Z,0.28
2022-12-15T14:05:53.295Z,0.02
2022-12-15T14:08:21.770Z,-0.04
2022-12-15T14:10:54.193Z,-0.08
2022-12-15T14:13:24.862Z,-0.13
2022-12-15T14:15:56.021Z,0.10
2022-12-15T14:18:37.812Z,-0.03
2022-12-15T14:21:34.767Z,0.16
2022-12-15T14:24:36.975Z,0.05
2022-12-15T14:26:47.662Z,-0.01
2022-12-15T14:29:18.246Z,0.06
2022-12-15T14:31:49.466Z,-0.06
2022-12-15T14:34:39.822Z,0.11
2022-12-15T14:37:11.739Z,0.08
2022-12-15T14:39:44.350Z,0.05
2022-12-15T14:42:29.518Z,0.06
2022-12-15T14:44:58.055Z,-0.01
2022-12-15T14:47:24.886Z,-0.03
2022-12-15T14:49:51.497Z,-0.10
2022-12-15T14:52:31.938Z,-0.21
2022-12-15T14:55:01.693Z,-0.21
2022-12-15T14:57:43.353Z,-0.13
2022-12-15T15:00:28.092Z,-0.08
2022-12-15T15:03:04.785Z,0.31
2022-12-15T15:03:19.176Z,-0.09
2022-12-15T15:05:57.920Z,-0.11
2022-12-15T15:08:32.667Z,-0.15
2022-12-15T15:11:04.130Z,-0.16
2022-12-15T15:13:40.452Z,-0.16
2022-12-15T15:16:15.907Z,-0.25
2022-12-15T15:18:43.239Z,-0.24
2022-12-15T15:21:17.013Z,-0.32
2022-12-15T15:24:01.404Z,-0.33
2022-12-15T15:26:29.766Z,-0.33
2022-12-15T15:28:57.780Z,-0.31
2022-12-15T15:31:40.948Z,-0.28
2022-12-15T15:34:08.533Z,-0.35
2022-12-15T15:36:37.854Z,-0.34
2022-12-15T15:39:12.507Z,-0.36
2022-12-15T15:41:39.092Z,-0.35
2022-12-15T15:44:12.208Z,-0.35
2022-12-15T15:46:52.176Z,-0.34
2022-12-15T15:49:21.817Z,-0.27
2022-12-15T15:51:48.771Z,-0.33
2022-12-15T15:54:19.164Z,-0.26
2022-12-15T15:56:45.692Z,-0.34
2022-12-15T15:59:17.903Z,-0.38
2022-12-15T16:01:46.924Z,-0.42
2022-12-15T16:04:13.486Z,-0.40
2022-12-15T16:06:46.686Z,-0.42
2022-12-15T16:09:15.488Z,-0.35
2022-12-15T16:11:42.194Z,-0.39
2022-12-15T16:14:16.809Z,-0.38
2022-12-15T16:16:43.964Z,-0.45
2022-12-15T16:19:10.425Z,-0.44
2022-12-15T16:21:36.830Z,-0.45
2022-12-15T16:24:11.058Z,-0.50
2022-12-15T16:26:37.479Z,-0.36
2022-12-15T16:29:13.892Z,-0.45
2022-12-15T16:31:42.015Z,-0.42
2022-12-15T16:34:08.791Z,-0.41
2022-12-15T16:36:35.363Z,-0.50
2022-12-15T16:39:02.027Z,-0.50
2022-12-15T16:41:28.763Z,-0.53
2022-12-15T16:43:55.405Z,-0.48
2022-12-15T16:46:22.030Z,-0.51
2022-12-15T16:48:48.632Z,-0.58
2022-12-15T16:51:52.557Z,-0.34
2022-12-15T16:54:31.171Z,-0.45
2022-12-15T16:56:59.771Z,-0.56
2022-12-15T16:59:35.748Z,-0.54
2022-12-15T17:02:28.186Z,-0.66
2022-12-15T17:04:55.144Z,-0.74
2022-12-15T17:07:22.187Z,-0.71
2022-12-15T17:09:50.661Z,-0.66
2022-12-15T17:12:17.876Z,-0.67
2022-12-15T17:14:45.126Z,-0.66
2022-12-15T17:17:15.598Z,-0.74
2022-12-15T17:19:57.798Z,-0.76
2022-12-15T17:22:28.683Z,-0.81
2022-12-15T17:24:55.340Z,-0.70
2022-12-15T17:27:28.330Z,-0.77
2022-12-15T17:30:00.750Z,-0.82
2022-12-15T17:32:27.168Z,-0.75
2022-12-15T17:34:53.693Z,-0.71
2022-12-15T17:37:21.703Z,-0.74
2022-12-15T17:39:48.175Z,-0.72
2022-12-15T17:42:18.638Z,-0.74
2022-12-15T17:44:45.884Z,-0.91
2022-12-15T17:47:12.308Z,-0.85
2022-12-15T17:49:39.321Z,-0.84
2022-12-15T17:52:27.429Z,-0.80
2022-12-15T17:54:55.336Z,-0.89
2022-12-15T17:57:22.130Z,-0.93
2022-12-15T17:59:48.729Z,-0.78
2022-12-15T18:02:15.587Z,-0.95
2022-12-15T18:04:42.949Z,-0.99
2022-12-15T18:07:19.578Z,-1.03
2022-12-15T18:09:46.668Z,-1.04
2022-12-15T18:12:19.355Z,-1.03
2022-12-15T18:14:47.367Z,-1.02
2022-12-15T18:17:14.095Z,-0.93
2022-12-15T18:19:40.534Z,-0.97
2022-12-15T18:22:15.396Z,-0.85
2022-12-15T18:24:41.900Z,-0.88
2022-12-15T18:27:23.443Z,-0.90
2022-12-15T18:29:50.289Z,-0.93
2022-12-15T18:32:17.927Z,-0.85
2022-12-15T18:34:44.567Z,-0.91
2022-12-15T18:37:15.768Z,-0.94
2022-12-15T18:39:42.138Z,-0.85
2022-12-15T18:42:14.300Z,-0.90
2022-12-15T18:44:43.967Z,-0.86
2022-12-15T18:47:21.278Z,-0.88
2022-12-15T18:49:47.968Z,-0.88
2022-12-15T18:52:25.014Z,-0.89
2022-12-15T18:54:53.086Z,-0.91
2022-12-15T18:57:36.970Z,-0.94
2022-12-15T19:00:09.352Z,-0.94
2022-12-15T19:02:35.833Z,-0.91
2022-12-15T19:05:02.343Z,-0.93
2022-12-15T19:07:29.335Z,-0.90
2022-12-15T19:09:55.889Z,-0.94
2022-12-15T19:12:22.381Z,-0.96
2022-12-15T19:14:51.205Z,-0.94
2022-12-15T19:17:20.122Z,-0.94
2022-12-15T19:19:46.498Z,-0.93
2022-12-15T19:22:13.170Z,-0.97
2022-12-15T19:24:40.706Z,-0.87
2022-12-15T19:27:11.564Z,-0.87
2022-12-15T19:29:38.761Z,-0.90
2022-12-15T19:32:05.597Z,-0.95
2022-12-15T19:34:32.146Z,-0.96
2022-12-15T19:36:59.667Z,-0.95
2022-12-15T19:39:27.972Z,-0.93
2022-12-15T19:41:54.658Z,-0.95
2022-12-15T19:44:21.376Z,-0.85
2022-12-15T19:46:47.918Z,-0.90
2022-12-15T19:49:14.262Z,-0.94
2022-12-15T19:51:40.918Z,-0.95
2022-12-15T19:54:07.294Z,-0.96
2022-12-15T19:56:33.732Z,-0.79
2022-12-15T19:59:01.481Z,-0.86
2022-12-15T20:01:27.908Z,-0.89
2022-12-15T20:03:54.281Z,-0.90
2022-12-15T20:06:24.181Z,-0.93
2022-12-15T20:08:53.164Z,-0.90
2022-12-15T20:11:24.922Z,-0.89
2022-12-15T20:13:52.003Z,-0.92
2022-12-15T20:16:19.032Z,-0.90
2022-12-15T20:18:46.952Z,-0.89
2022-12-15T20:21:19.184Z,-0.90
2022-12-15T20:23:54.724Z,-0.91
2022-12-15T20:26:22.098Z,-0.90
2022-12-15T20:28:49.026Z,-0.87
2022-12-15T20:31:18.563Z,-0.90
2022-12-15T20:33:46.277Z,-0.89
2022-12-15T20:36:19.897Z,-0.93
2022-12-15T20:38:50.443Z,-0.91
2022-12-15T20:41:27.485Z,-0.93
2022-12-15T20:43:54.763Z,-0.91
2022-12-15T20:46:27.432Z,-0.89
2022-12-15T20:48:58.609Z,-0.93
2022-12-15T20:51:30.840Z,-0.94
2022-12-15T20:54:02.029Z,-0.93
2022-12-15T20:56:28.964Z,-0.94
2022-12-15T20:58:58.025Z,-0.94
2022-12-15T21:01:29.683Z,-0.95
2022-12-15T21:03:58.023Z,-0.90
2022-12-15T21:06:26.046Z,-0.93
2022-12-15T21:08:52.913Z,-0.94
2022-12-15T21:11:32.404Z,-0.95
2022-12-15T21:13:58.796Z,-0.97
2022-12-15T21:16:28.063Z,-0.97
2022-12-15T21:19:19.356Z,-1.02
2022-12-15T21:21:45.403Z,-1.00
2022-12-15T21:24:20.811Z,-0.99
2022-12-15T21:26:47.278Z,-1.05
2022-12-15T21:29:16.533Z,-1.08
2022-12-15T21:31:43.458Z,-1.10
2022-12-15T21:34:09.841Z,-1.09
2022-12-15T21:36:37.852Z,-1.08
2022-12-15T21:39:06.908Z,-1.11
2022-12-15T21:41:34.212Z,-1.10
2022-12-15T21:44:00.589Z,-1.13
2022-12-15T21:46:28.210Z,-1.16
2022-12-15T21:48:56.332Z,-1.14
2022-12-15T21:51:22.948Z,-1.18
2022-12-15T21:53:49.314Z,-1.18
2022-12-15T21:56:18.531Z,-1.22
2022-12-15T21:58:46.477Z,-1.23
2022-12-15T22:01:14.220Z,-1.26
2022-12-15T22:03:44.465Z,-1.31
2022-12-15T22:06:17.924Z,-1.33
2022-12-15T22:08:44.460Z,-1.34
2022-12-15T22:11:26.696Z,-1.37
2022-12-15T22:13:55.295Z,-1.40
2022-12-15T22:16:22.781Z,-1.38
2022-12-15T22:18:53.254Z,-1.40
2022-12-15T22:21:22.293Z,-1.42
2022-12-15T22:23:48.933Z,-1.40
2022-12-15T22:26:23.817Z,-1.42
2022-12-15T22:28:51.643Z,-1.43
2022-12-15T22:31:18.532Z,-1.45
2022-12-15T22:33:45.171Z,-1.47
2022-12-15T22:36:11.666Z,-1.47
2022-12-15T22:38:38.046Z,-1.49
2022-12-15T22:41:06.346Z,-1.47
2022-12-15T22:43:39.180Z,-1.46
2022-12-15T22:46:09.544Z,-1.47
2022-12-15T22:48:38.806Z,-1.47
2022-12-15T22:51:06.418Z,-1.47
2022-12-15T22:53:35.014Z,-1.48
2022-12-15T22:56:04.981Z,-1.53
2022-12-15T22:58:36.869Z,-1.49
2022-12-15T23:01:05.449Z,-1.52
2022-12-15T23:03:33.310Z,-1.50
2022-12-15T23:06:02.019Z,-1.52
2022-12-15T23:08:30.225Z,-1.56
2022-12-15T23:10:57.030Z,-1.54
2022-12-15T23:13:23.515Z,-1.56
2022-12-15T23:15:51.067Z,-1.54
2022-12-15T23:18:18.678Z,-1.54
2022-12-15T23:20:45.224Z,-1.56
2022-12-15T23:23:11.582Z,-1.53
2022-12-15T23:25:38.142Z,-1.51
2022-12-15T23:28:04.802Z,-1.47
2022-12-15T23:30:31.326Z,-1.51
2022-12-15T23:32:57.731Z,-1.51
2022-12-15T23:35:24.473Z,-1.48
2022-12-15T23:37:51.095Z,-1.56
2022-12-15T23:40:17.883Z,-1.58
2022-12-15T23:42:44.232Z,-1.64
2022-12-15T23:45:11.143Z,-1.57
2022-12-15T23:47:37.511Z,-1.60
2022-12-15T23:50:04.405Z,-1.57
2022-12-15T23:52:31.298Z,-1.55
2022-12-15T23:54:57.680Z,-1.54
2022-12-15T23:57:24.537Z,-1.52
2022-12-15T23:59:50.966Z,-1.46
